sensor_id;sensor_type;location;lat;lon;timestamp;P1;durP1;ratioP1;P2;durP2;ratioP2
69594;SDS011;56800;52.142;5.364;2023-11-21T00:01:06;21.20;;;10.75;;
69594;SDS011;56800;52.142;5.364;2023-11-21T00:03:35;23.33;;;11.17;;
69594;SDS011;56800;52.142;5.364;2023-11-21T00:06:02;23.08;;;9.98;;
69594;SDS011;56800;52.142;5.364;2023-11-21T00:08:29;20.83;;;10.35;;
69594;SDS011;56800;52.142;5.364;2023-11-21T00:10:56;21.33;;;10.23;;
69594;SDS011;56800;52.142;5.364;2023-11-21T00:13:23;18.88;;;9.00;;
69594;SDS011;56800;52.142;5.364;2023-11-21T00:15:50;20.73;;;9.40;;
69594;SDS011;56800;52.142;5.364;2023-11-21T00:18:17;21.38;;;10.05;;
69594;SDS011;56800;52.142;5.364;2023-11-21T00:20:44;19.33;;;9.45;;
69594;SDS011;56800;52.142;5.364;2023-11-21T00:23:10;15.50;;;9.10;;
69594;SDS011;56800;52.142;5.364;2023-11-21T00:25:37;16.13;;;8.90;;
69594;SDS011;56800;52.142;5.364;2023-11-21T00:28:04;24.10;;;10.30;;
69594;SDS011;56800;52.142;5.364;2023-11-21T00:30:32;23.65;;;9.52;;
69594;SDS011;56800;52.142;5.364;2023-11-21T00:32:59;20.48;;;8.85;;
69594;SDS011;56800;52.142;5.364;2023-11-21T00:35:26;17.38;;;9.40;;
69594;SDS011;56800;52.142;5.364;2023-11-21T00:37:53;17.98;;;9.15;;
69594;SDS011;56800;52.142;5.364;2023-11-21T00:40:20;22.30;;;8.80;;
69594;SDS011;56800;52.142;5.364;2023-11-21T00:42:47;21.65;;;9.98;;
69594;SDS011;56800;52.142;5.364;2023-11-21T00:45:14;19.30;;;9.68;;
69594;SDS011;56800;52.142;5.364;2023-11-21T00:47:41;18.67;;;8.60;;
69594;SDS011;56800;52.142;5.364;2023-11-21T00:50:08;15.70;;;8.30;;
69594;SDS011;56800;52.142;5.364;2023-11-21T00:52:36;22.53;;;9.23;;
69594;SDS011;56800;52.142;5.364;2023-11-21T00:55:04;17.50;;;8.85;;
69594;SDS011;56800;52.142;5.364;2023-11-21T00:57:33;17.63;;;8.80;;
69594;SDS011;56800;52.142;5.364;2023-11-21T01:00:01;17.00;;;8.73;;
69594;SDS011;56800;52.142;5.364;2023-11-21T01:02:27;18.00;;;9.15;;
69594;SDS011;56800;52.142;5.364;2023-11-21T01:04:55;15.37;;;8.50;;
69594;SDS011;56800;52.142;5.364;2023-11-21T01:07:22;16.67;;;8.77;;
69594;SDS011;56800;52.142;5.364;2023-11-21T01:09:49;17.73;;;8.23;;
69594;SDS011;56800;52.142;5.364;2023-11-21T01:12:16;13.38;;;7.53;;
69594;SDS011;56800;52.142;5.364;2023-11-21T01:14:43;17.08;;;7.75;;
69594;SDS011;56800;52.142;5.364;2023-11-21T01:17:11;17.57;;;8.20;;
69594;SDS011;56800;52.142;5.364;2023-11-21T01:19:39;20.80;;;8.80;;
69594;SDS011;56800;52.142;5.364;2023-11-21T01:22:06;16.65;;;8.25;;
69594;SDS011;56800;52.142;5.364;2023-11-21T01:24:33;14.57;;;8.60;;
69594;SDS011;56800;52.142;5.364;2023-11-21T01:26:59;19.42;;;7.68;;
69594;SDS011;56800;52.142;5.364;2023-11-21T01:29:26;20.13;;;8.27;;
69594;SDS011;56800;52.142;5.364;2023-11-21T01:31:54;21.15;;;7.90;;
69594;SDS011;56800;52.142;5.364;2023-11-21T01:34:21;21.63;;;8.50;;
69594;SDS011;56800;52.142;5.364;2023-11-21T01:36:47;17.67;;;7.18;;
69594;SDS011;56800;52.142;5.364;2023-11-21T01:39:14;19.65;;;7.38;;
69594;SDS011;56800;52.142;5.364;2023-11-21T01:41:42;22.30;;;7.97;;
69594;SDS011;56800;52.142;5.364;2023-11-21T01:44:11;25.80;;;8.02;;
69594;SDS011;56800;52.142;5.364;2023-11-21T01:46:39;22.30;;;7.53;;
69594;SDS011;56800;52.142;5.364;2023-11-21T01:49:08;18.42;;;7.05;;
69594;SDS011;56800;52.142;5.364;2023-11-21T01:51:40;19.50;;;7.10;;
69594;SDS011;56800;52.142;5.364;2023-11-21T01:54:09;15.27;;;6.93;;
69594;SDS011;56800;52.142;5.364;2023-11-21T01:56:46;19.33;;;7.10;;
69594;SDS011;56800;52.142;5.364;2023-11-21T01:59:20;23.77;;;7.72;;
69594;SDS011;56800;52.142;5.364;2023-11-21T02:01:48;18.38;;;7.47;;
69594;SDS011;56800;52.142;5.364;2023-11-21T02:04:16;20.83;;;7.00;;
69594;SDS011;56800;52.142;5.364;2023-11-21T02:06:44;19.73;;;7.40;;
69594;SDS011;56800;52.142;5.364;2023-11-21T02:09:11;17.92;;;7.35;;
69594;SDS011;56800;52.142;5.364;2023-11-21T02:11:41;17.77;;;7.93;;
69594;SDS011;56800;52.142;5.364;2023-11-21T02:14:08;21.63;;;7.65;;
69594;SDS011;56800;52.142;5.364;2023-11-21T02:16:36;16.38;;;6.88;;
69594;SDS011;56800;52.142;5.364;2023-11-21T02:19:03;16.67;;;7.90;;
69594;SDS011;56800;52.142;5.364;2023-11-21T02:21:35;23.67;;;7.93;;
69594;SDS011;56800;52.142;5.364;2023-11-21T02:24:06;20.73;;;7.63;;
69594;SDS011;56800;52.142;5.364;2023-11-21T02:26:34;23.52;;;7.35;;
69594;SDS011;56800;52.142;5.364;2023-11-21T02:29:01;18.98;;;6.75;;
69594;SDS011;56800;52.142;5.364;2023-11-21T02:31:30;24.20;;;7.57;;
69594;SDS011;56800;52.142;5.364;2023-11-21T02:33:59;20.02;;;7.38;;
69594;SDS011;56800;52.142;5.364;2023-11-21T02:36:26;20.25;;;7.43;;
69594;SDS011;56800;52.142;5.364;2023-11-21T02:38:52;20.13;;;7.72;;
69594;SDS011;56800;52.142;5.364;2023-11-21T02:41:19;18.90;;;7.88;;
69594;SDS011;56800;52.142;5.364;2023-11-21T02:43:46;19.47;;;7.50;;
69594;SDS011;56800;52.142;5.364;2023-11-21T02:46:13;20.13;;;7.90;;
69594;SDS011;56800;52.142;5.364;2023-11-21T02:48:39;22.08;;;7.93;;
69594;SDS011;56800;52.142;5.364;2023-11-21T02:51:06;21.17;;;7.35;;
69594;SDS011;56800;52.142;5.364;2023-11-21T02:53:33;14.00;;;7.65;;
69594;SDS011;56800;52.142;5.364;2023-11-21T02:56:00;19.63;;;7.70;;
69594;SDS011;56800;52.142;5.364;2023-11-21T02:58:27;18.20;;;7.38;;
69594;SDS011;56800;52.142;5.364;2023-11-21T03:00:54;16.50;;;7.70;;
69594;SDS011;56800;52.142;5.364;2023-11-21T03:03:21;15.70;;;7.40;;
69594;SDS011;56800;52.142;5.364;2023-11-21T03:05:50;20.17;;;7.30;;
69594;SDS011;56800;52.142;5.364;2023-11-21T03:08:17;18.03;;;7.90;;
69594;SDS011;56800;52.142;5.364;2023-11-21T03:10:43;16.77;;;7.22;;
69594;SDS011;56800;52.142;5.364;2023-11-21T03:13:10;19.08;;;7.45;;
69594;SDS011;56800;52.142;5.364;2023-11-21T03:15:37;16.27;;;7.00;;
69594;SDS011;56800;52.142;5.364;2023-11-21T03:18:04;16.10;;;7.47;;
69594;SDS011;56800;52.142;5.364;2023-11-21T03:20:31;19.47;;;6.97;;
69594;SDS011;56800;52.142;5.364;2023-11-21T03:22:58;17.38;;;6.97;;
69594;SDS011;56800;52.142;5.364;2023-11-21T03:25:26;13.65;;;7.32;;
69594;SDS011;56800;52.142;5.364;2023-11-21T03:27:53;20.40;;;7.65;;
69594;SDS011;56800;52.142;5.364;2023-11-21T03:30:20;17.40;;;7.45;;
69594;SDS011;56800;52.142;5.364;2023-11-21T03:32:47;21.60;;;8.33;;
69594;SDS011;56800;52.142;5.364;2023-11-21T03:35:14;18.67;;;7.50;;
69594;SDS011;56800;52.142;5.364;2023-11-21T03:37:41;17.75;;;7.25;;
69594;SDS011;56800;52.142;5.364;2023-11-21T03:40:09;22.30;;;7.07;;
69594;SDS011;56800;52.142;5.364;2023-11-21T03:42:36;19.17;;;8.20;;
69594;SDS011;56800;52.142;5.364;2023-11-21T03:45:03;21.53;;;7.67;;
69594;SDS011;56800;52.142;5.364;2023-11-21T03:47:30;17.77;;;7.38;;
69594;SDS011;56800;52.142;5.364;2023-11-21T03:49:58;16.67;;;7.82;;
69594;SDS011;56800;52.142;5.364;2023-11-21T03:52:24;24.35;;;8.30;;
69594;SDS011;56800;52.142;5.364;2023-11-21T03:54:51;26.98;;;8.15;;
69594;SDS011;56800;52.142;5.364;2023-11-21T03:57:18;23.97;;;8.03;;
69594;SDS011;56800;52.142;5.364;2023-11-21T03:59:45;20.30;;;8.65;;
69594;SDS011;56800;52.142;5.364;2023-11-21T04:02:12;19.98;;;7.75;;
69594;SDS011;56800;52.142;5.364;2023-11-21T04:04:38;15.10;;;7.82;;
69594;SDS011;56800;52.142;5.364;2023-11-21T04:07:05;18.27;;;8.60;;
69594;SDS011;56800;52.142;5.364;2023-11-21T04:09:32;19.07;;;8.40;;
69594;SDS011;56800;52.142;5.364;2023-11-21T04:11:59;19.35;;;7.75;;
69594;SDS011;56800;52.142;5.364;2023-11-21T04:14:26;20.45;;;8.40;;
69594;SDS011;56800;52.142;5.364;2023-11-21T04:16:53;23.63;;;8.27;;
69594;SDS011;56800;52.142;5.364;2023-11-21T04:19:20;18.70;;;8.10;;
69594;SDS011;56800;52.142;5.364;2023-11-21T04:21:47;22.10;;;8.33;;
69594;SDS011;56800;52.142;5.364;2023-11-21T04:24:14;21.42;;;7.53;;
69594;SDS011;56800;52.142;5.364;2023-11-21T04:26:41;24.75;;;8.38;;
69594;SDS011;56800;52.142;5.364;2023-11-21T04:29:08;29.23;;;8.30;;
69594;SDS011;56800;52.142;5.364;2023-11-21T04:31:35;25.25;;;8.43;;
69594;SDS011;56800;52.142;5.364;2023-11-21T04:34:01;26.43;;;7.77;;
69594;SDS011;56800;52.142;5.364;2023-11-21T04:36:30;24.73;;;8.05;;
69594;SDS011;56800;52.142;5.364;2023-11-21T04:38:57;20.05;;;8.10;;
69594;SDS011;56800;52.142;5.364;2023-11-21T04:41:24;23.08;;;8.88;;
69594;SDS011;56800;52.142;5.364;2023-11-21T04:43:51;23.05;;;10.07;;
69594;SDS011;56800;52.142;5.364;2023-11-21T04:46:18;30.63;;;10.93;;
69594;SDS011;56800;52.142;5.364;2023-11-21T04:48:45;24.25;;;9.80;;
69594;SDS011;56800;52.142;5.364;2023-11-21T04:51:11;26.67;;;9.15;;
69594;SDS011;56800;52.142;5.364;2023-11-21T04:53:39;25.92;;;9.27;;
69594;SDS011;56800;52.142;5.364;2023-11-21T04:56:05;22.70;;;8.85;;
69594;SDS011;56800;52.142;5.364;2023-11-21T04:58:32;24.23;;;9.43;;
69594;SDS011;56800;52.142;5.364;2023-11-21T05:00:59;20.30;;;9.05;;
69594;SDS011;56800;52.142;5.364;2023-11-21T05:03:27;25.27;;;8.20;;
69594;SDS011;56800;52.142;5.364;2023-11-21T05:05:56;27.67;;;9.60;;
69594;SDS011;56800;52.142;5.364;2023-11-21T05:08:23;27.92;;;8.88;;
69594;SDS011;56800;52.142;5.364;2023-11-21T05:10:49;35.93;;;9.50;;
69594;SDS011;56800;52.142;5.364;2023-11-21T05:13:17;26.30;;;8.98;;
69594;SDS011;56800;52.142;5.364;2023-11-21T05:15:44;35.42;;;9.35;;
69594;SDS011;56800;52.142;5.364;2023-11-21T05:18:12;25.77;;;8.93;;
69594;SDS011;56800;52.142;5.364;2023-11-21T05:20:40;25.13;;;8.57;;
69594;SDS011;56800;52.142;5.364;2023-11-21T05:23:07;27.40;;;9.90;;
69594;SDS011;56800;52.142;5.364;2023-11-21T05:25:34;26.67;;;9.10;;
69594;SDS011;56800;52.142;5.364;2023-11-21T05:28:05;29.10;;;9.73;;
69594;SDS011;56800;52.142;5.364;2023-11-21T05:30:33;28.98;;;10.57;;
69594;SDS011;56800;52.142;5.364;2023-11-21T05:32:59;33.40;;;9.55;;
69594;SDS011;56800;52.142;5.364;2023-11-21T05:35:26;26.73;;;8.93;;
69594;SDS011;56800;52.142;5.364;2023-11-21T05:37:53;27.95;;;9.98;;
69594;SDS011;56800;52.142;5.364;2023-11-21T05:40:20;21.30;;;9.35;;
69594;SDS011;56800;52.142;5.364;2023-11-21T05:42:48;29.80;;;9.63;;
69594;SDS011;56800;52.142;5.364;2023-11-21T05:45:15;39.05;;;10.35;;
69594;SDS011;56800;52.142;5.364;2023-11-21T05:47:42;29.93;;;10.03;;
69594;SDS011;56800;52.142;5.364;2023-11-21T05:50:13;33.53;;;8.65;;
69594;SDS011;56800;52.142;5.364;2023-11-21T05:52:42;34.92;;;10.70;;
69594;SDS011;56800;52.142;5.364;2023-11-21T05:55:10;39.42;;;11.50;;
69594;SDS011;56800;52.142;5.364;2023-11-21T05:57:37;37.50;;;11.15;;
69594;SDS011;56800;52.142;5.364;2023-11-21T06:00:05;34.33;;;10.77;;
69594;SDS011;56800;52.142;5.364;2023-11-21T06:02:38;31.77;;;10.18;;
69594;SDS011;56800;52.142;5.364;2023-11-21T06:05:08;32.95;;;10.93;;
69594;SDS011;56800;52.142;5.364;2023-11-21T06:07:36;30.05;;;10.13;;
69594;SDS011;56800;52.142;5.364;2023-11-21T06:10:04;33.63;;;10.18;;
69594;SDS011;56800;52.142;5.364;2023-11-21T06:12:38;35.10;;;11.53;;
69594;SDS011;56800;52.142;5.364;2023-11-21T06:15:06;33.20;;;10.57;;
69594;SDS011;56800;52.142;5.364;2023-11-21T06:17:35;35.53;;;10.50;;
69594;SDS011;56800;52.142;5.364;2023-11-21T06:20:03;32.58;;;11.20;;
69594;SDS011;56800;52.142;5.364;2023-11-21T06:22:36;24.35;;;9.98;;
69594;SDS011;56800;52.142;5.364;2023-11-21T06:25:04;24.20;;;9.97;;
69594;SDS011;56800;52.142;5.364;2023-11-21T06:27:32;34.53;;;10.80;;
69594;SDS011;56800;52.142;5.364;2023-11-21T06:29:59;35.33;;;10.43;;
69594;SDS011;56800;52.142;5.364;2023-11-21T06:32:26;31.92;;;11.13;;
69594;SDS011;56800;52.142;5.364;2023-11-21T06:35:02;34.92;;;11.18;;
69594;SDS011;56800;52.142;5.364;2023-11-21T06:37:32;32.53;;;11.23;;
69594;SDS011;56800;52.142;5.364;2023-11-21T06:40:00;26.58;;;9.57;;
69594;SDS011;56800;52.142;5.364;2023-11-21T06:42:27;32.53;;;10.07;;
69594;SDS011;56800;52.142;5.364;2023-11-21T06:44:55;34.58;;;10.93;;
69594;SDS011;56800;52.142;5.364;2023-11-21T06:47:23;29.13;;;10.13;;
69594;SDS011;56800;52.142;5.364;2023-11-21T06:49:56;31.80;;;10.63;;
69594;SDS011;56800;52.142;5.364;2023-11-21T06:52:22;35.35;;;11.40;;
69594;SDS011;56800;52.142;5.364;2023-11-21T06:54:49;38.95;;;10.18;;
69594;SDS011;56800;52.142;5.364;2023-11-21T06:57:16;32.47;;;10.25;;
69594;SDS011;56800;52.142;5.364;2023-11-21T06:59:43;31.30;;;10.25;;
69594;SDS011;56800;52.142;5.364;2023-11-21T07:02:10;29.63;;;9.53;;
69594;SDS011;56800;52.142;5.364;2023-11-21T07:04:37;31.10;;;10.27;;
69594;SDS011;56800;52.142;5.364;2023-11-21T07:07:04;27.13;;;9.45;;
69594;SDS011;56800;52.142;5.364;2023-11-21T07:09:33;33.47;;;10.20;;
69594;SDS011;56800;52.142;5.364;2023-11-21T07:11:59;27.48;;;9.27;;
69594;SDS011;56800;52.142;5.364;2023-11-21T07:14:26;31.37;;;9.97;;
69594;SDS011;56800;52.142;5.364;2023-11-21T07:16:53;41.53;;;9.93;;
69594;SDS011;56800;52.142;5.364;2023-11-21T07:19:20;35.13;;;10.27;;
69594;SDS011;56800;52.142;5.364;2023-11-21T07:21:47;31.75;;;9.80;;
69594;SDS011;56800;52.142;5.364;2023-11-21T07:24:17;25.52;;;9.63;;
69594;SDS011;56800;52.142;5.364;2023-11-21T07:26:44;30.23;;;9.40;;
69594;SDS011;56800;52.142;5.364;2023-11-21T07:29:10;27.98;;;8.60;;
69594;SDS011;56800;52.142;5.364;2023-11-21T07:31:38;25.65;;;8.75;;
69594;SDS011;56800;52.142;5.364;2023-11-21T07:34:05;30.20;;;9.30;;
69594;SDS011;56800;52.142;5.364;2023-11-21T07:36:32;26.65;;;8.80;;
69594;SDS011;56800;52.142;5.364;2023-11-21T07:38:58;25.53;;;7.57;;
69594;SDS011;56800;52.142;5.364;2023-11-21T07:41:25;24.98;;;8.52;;
69594;SDS011;56800;52.142;5.364;2023-11-21T07:43:57;20.27;;;7.70;;
69594;SDS011;56800;52.142;5.364;2023-11-21T07:46:25;20.08;;;8.02;;
69594;SDS011;56800;52.142;5.364;2023-11-21T07:48:53;19.95;;;8.20;;
69594;SDS011;56800;52.142;5.364;2023-11-21T07:51:21;22.23;;;8.00;;
69594;SDS011;56800;52.142;5.364;2023-11-21T07:53:48;24.63;;;8.57;;
69594;SDS011;56800;52.142;5.364;2023-11-21T07:56:15;21.15;;;7.90;;
69594;SDS011;56800;52.142;5.364;2023-11-21T07:58:42;35.30;;;8.20;;
69594;SDS011;56800;52.142;5.364;2023-11-21T08:01:10;16.00;;;7.65;;
69594;SDS011;56800;52.142;5.364;2023-11-21T08:03:37;20.53;;;7.33;;
69594;SDS011;56800;52.142;5.364;2023-11-21T08:06:04;23.35;;;6.95;;
69594;SDS011;56800;52.142;5.364;2023-11-21T08:08:33;19.75;;;7.50;;
69594;SDS011;56800;52.142;5.364;2023-11-21T08:10:59;18.40;;;7.30;;
69594;SDS011;56800;52.142;5.364;2023-11-21T08:13:28;19.88;;;6.13;;
69594;SDS011;56800;52.142;5.364;2023-11-21T08:15:57;18.40;;;6.57;;
69594;SDS011;56800;52.142;5.364;2023-11-21T08:18:28;23.35;;;6.90;;
69594;SDS011;56800;52.142;5.364;2023-11-21T08:20:56;22.05;;;6.30;;
69594;SDS011;56800;52.142;5.364;2023-11-21T08:23:23;16.45;;;6.25;;
69594;SDS011;56800;52.142;5.364;2023-11-21T08:25:53;22.88;;;7.20;;
69594;SDS011;56800;52.142;5.364;2023-11-21T08:28:20;21.43;;;6.67;;
69594;SDS011;56800;52.142;5.364;2023-11-21T08:30:52;17.17;;;5.60;;
69594;SDS011;56800;52.142;5.364;2023-11-21T08:33:20;19.50;;;6.78;;
69594;SDS011;56800;52.142;5.364;2023-11-21T08:35:47;16.88;;;6.30;;
69594;SDS011;56800;52.142;5.364;2023-11-21T08:38:14;18.90;;;5.97;;
69594;SDS011;56800;52.142;5.364;2023-11-21T08:40:40;13.73;;;5.80;;
69594;SDS011;56800;52.142;5.364;2023-11-21T08:43:07;17.00;;;5.90;;
69594;SDS011;56800;52.142;5.364;2023-11-21T08:45:34;20.45;;;5.93;;
69594;SDS011;56800;52.142;5.364;2023-11-21T08:48:01;17.60;;;5.40;;
69594;SDS011;56800;52.142;5.364;2023-11-21T08:50:28;19.38;;;6.22;;
69594;SDS011;56800;52.142;5.364;2023-11-21T08:52:55;15.20;;;6.63;;
69594;SDS011;56800;52.142;5.364;2023-11-21T08:55:22;30.17;;;15.10;;
69594;SDS011;56800;52.142;5.364;2023-11-21T08:57:49;27.63;;;8.32;;
69594;SDS011;56800;52.142;5.364;2023-11-21T09:00:17;23.77;;;7.57;;
69594;SDS011;56800;52.142;5.364;2023-11-21T09:02:45;17.73;;;7.10;;
69594;SDS011;56800;52.142;5.364;2023-11-21T09:05:12;19.10;;;6.67;;
69594;SDS011;56800;52.142;5.364;2023-11-21T09:07:40;19.83;;;7.25;;
69594;SDS011;56800;52.142;5.364;2023-11-21T09:10:08;18.20;;;7.50;;
69594;SDS011;56800;52.142;5.364;2023-11-21T09:12:36;18.85;;;8.02;;
69594;SDS011;56800;52.142;5.364;2023-11-21T09:15:04;25.95;;;7.85;;
69594;SDS011;56800;52.142;5.364;2023-11-21T09:17:32;18.87;;;7.37;;
69594;SDS011;56800;52.142;5.364;2023-11-21T09:20:03;21.08;;;7.80;;
69594;SDS011;56800;52.142;5.364;2023-11-21T09:22:32;21.48;;;8.07;;
69594;SDS011;56800;52.142;5.364;2023-11-21T09:24:59;22.08;;;7.63;;
69594;SDS011;56800;52.142;5.364;2023-11-21T09:27:26;18.48;;;8.43;;
69594;SDS011;56800;52.142;5.364;2023-11-21T09:29:52;21.63;;;10.00;;
69594;SDS011;56800;52.142;5.364;2023-11-21T09:32:20;22.40;;;9.65;;
69594;SDS011;56800;52.142;5.364;2023-11-21T09:34:50;22.27;;;10.25;;
69594;SDS011;56800;52.142;5.364;2023-11-21T09:37:17;23.33;;;9.75;;
69594;SDS011;56800;52.142;5.364;2023-11-21T09:39:45;18.55;;;9.05;;
69594;SDS011;56800;52.142;5.364;2023-11-21T09:42:15;22.83;;;9.43;;
69594;SDS011;56800;52.142;5.364;2023-11-21T09:44:54;19.60;;;8.43;;
69594;SDS011;56800;52.142;5.364;2023-11-21T09:47:40;24.48;;;9.80;;
69594;SDS011;56800;52.142;5.364;2023-11-21T09:50:08;18.45;;;8.05;;
69594;SDS011;56800;52.142;5.364;2023-11-21T09:52:57;24.13;;;8.68;;
69594;SDS011;56800;52.142;5.364;2023-11-21T09:55:34;19.47;;;8.13;;
69594;SDS011;56800;52.142;5.364;2023-11-21T09:58:03;20.15;;;7.70;;
69594;SDS011;56800;52.142;5.364;2023-11-21T10:00:33;16.52;;;7.82;;
69594;SDS011;56800;52.142;5.364;2023-11-21T10:03:00;17.98;;;7.65;;
69594;SDS011;56800;52.142;5.364;2023-11-21T10:05:29;16.85;;;7.40;;
69594;SDS011;56800;52.142;5.364;2023-11-21T10:07:56;19.33;;;7.90;;
69594;SDS011;56800;52.142;5.364;2023-11-21T10:10:24;18.42;;;7.90;;
69594;SDS011;56800;52.142;5.364;2023-11-21T10:12:53;16.60;;;7.97;;
69594;SDS011;56800;52.142;5.364;2023-11-21T10:15:22;14.05;;;7.20;;
69594;SDS011;56800;52.142;5.364;2023-11-21T10:17:51;17.92;;;7.75;;
69594;SDS011;56800;52.142;5.364;2023-11-21T10:20:20;14.63;;;6.80;;
69594;SDS011;56800;52.142;5.364;2023-11-21T10:22:47;13.43;;;6.18;;
69594;SDS011;56800;52.142;5.364;2023-11-21T10:25:13;14.15;;;6.30;;
69594;SDS011;56800;52.142;5.364;2023-11-21T10:27:41;15.77;;;6.53;;
69594;SDS011;56800;52.142;5.364;2023-11-21T10:30:09;15.80;;;6.40;;
69594;SDS011;56800;52.142;5.364;2023-11-21T10:32:38;14.97;;;6.63;;
69594;SDS011;56800;52.142;5.364;2023-11-21T10:35:07;11.00;;;5.68;;
69594;SDS011;56800;52.142;5.364;2023-11-21T10:37:39;11.43;;;5.82;;
69594;SDS011;56800;52.142;5.364;2023-11-21T10:40:07;11.70;;;6.22;;
69594;SDS011;56800;52.142;5.364;2023-11-21T10:42:41;14.63;;;6.10;;
69594;SDS011;56800;52.142;5.364;2023-11-21T10:45:08;17.53;;;7.23;;
69594;SDS011;56800;52.142;5.364;2023-11-21T10:47:41;12.40;;;6.60;;
69594;SDS011;56800;52.142;5.364;2023-11-21T10:50:08;17.98;;;7.10;;
69594;SDS011;56800;52.142;5.364;2023-11-21T10:52:41;17.55;;;7.30;;
69594;SDS011;56800;52.142;5.364;2023-11-21T10:55:17;16.30;;;7.15;;
69594;SDS011;56800;52.142;5.364;2023-11-21T10:57:48;15.20;;;7.93;;
69594;SDS011;56800;52.142;5.364;2023-11-21T11:00:18;18.30;;;7.70;;
69594;SDS011;56800;52.142;5.364;2023-11-21T11:02:52;15.30;;;7.30;;
69594;SDS011;56800;52.142;5.364;2023-11-21T11:05:23;14.40;;;7.43;;
69594;SDS011;56800;52.142;5.364;2023-11-21T11:07:56;15.98;;;7.20;;
69594;SDS011;56800;52.142;5.364;2023-11-21T11:10:30;15.03;;;7.57;;
69594;SDS011;56800;52.142;5.364;2023-11-21T11:12:57;19.00;;;8.40;;
69594;SDS011;56800;52.142;5.364;2023-11-21T11:15:25;20.63;;;9.73;;
69594;SDS011;56800;52.142;5.364;2023-11-21T11:17:53;21.50;;;10.32;;
69594;SDS011;56800;52.142;5.364;2023-11-21T11:20:29;20.35;;;9.77;;
69594;SDS011;56800;52.142;5.364;2023-11-21T11:23:17;17.80;;;9.30;;
69594;SDS011;56800;52.142;5.364;2023-11-21T11:26:23;17.27;;;9.07;;
69594;SDS011;56800;52.142;5.364;2023-11-21T11:29:22;21.83;;;8.93;;
69594;SDS011;56800;52.142;5.364;2023-11-21T11:34:36;19.67;;;8.82;;
69594;SDS011;56800;52.142;5.364;2023-11-21T11:37:12;17.33;;;8.83;;
69594;SDS011;56800;52.142;5.364;2023-11-21T11:39:42;18.80;;;9.68;;
69594;SDS011;56800;52.142;5.364;2023-11-21T11:42:13;16.90;;;8.95;;
69594;SDS011;56800;52.142;5.364;2023-11-21T11:47:22;19.05;;;10.00;;
69594;SDS011;56800;52.142;5.364;2023-11-21T11:52:37;22.40;;;9.43;;
69594;SDS011;56800;52.142;5.364;2023-11-21T11:55:07;17.60;;;9.52;;
69594;SDS011;56800;52.142;5.364;2023-11-21T11:57:38;18.17;;;9.20;;
69594;SDS011;56800;52.142;5.364;2023-11-21T12:00:15;16.08;;;8.75;;
69594;SDS011;56800;52.142;5.364;2023-11-21T12:02:48;16.57;;;9.30;;
69594;SDS011;56800;52.142;5.364;2023-11-21T12:05:16;16.38;;;9.52;;
69594;SDS011;56800;52.142;5.364;2023-11-21T12:10:16;18.88;;;10.27;;
69594;SDS011;56800;52.142;5.364;2023-11-21T12:12:46;26.08;;;10.70;;
69594;SDS011;56800;52.142;5.364;2023-11-21T12:15:18;19.37;;;10.33;;
69594;SDS011;56800;52.142;5.364;2023-11-21T12:17:46;21.65;;;10.98;;
69594;SDS011;56800;52.142;5.364;2023-11-21T12:20:13;24.33;;;12.27;;
69594;SDS011;56800;52.142;5.364;2023-11-21T12:22:42;25.08;;;11.98;;
69594;SDS011;56800;52.142;5.364;2023-11-21T12:25:16;21.40;;;11.55;;
69594;SDS011;56800;52.142;5.364;2023-11-21T12:27:46;22.50;;;11.60;;
69594;SDS011;56800;52.142;5.364;2023-11-21T12:30:16;24.55;;;11.57;;
69594;SDS011;56800;52.142;5.364;2023-11-21T12:32:44;21.92;;;11.75;;
69594;SDS011;56800;52.142;5.364;2023-11-21T12:35:15;18.80;;;11.25;;
69594;SDS011;56800;52.142;5.364;2023-11-21T12:37:45;22.70;;;11.10;;
69594;SDS011;56800;52.142;5.364;2023-11-21T12:40:13;19.73;;;11.00;;
69594;SDS011;56800;52.142;5.364;2023-11-21T12:42:47;18.63;;;10.93;;
69594;SDS011;56800;52.142;5.364;2023-11-21T12:45:18;19.45;;;11.23;;
69594;SDS011;56800;52.142;5.364;2023-11-21T12:47:53;22.35;;;10.52;;
69594;SDS011;56800;52.142;5.364;2023-11-21T12:50:23;16.42;;;9.63;;
69594;SDS011;56800;52.142;5.364;2023-11-21T12:52:50;20.73;;;9.83;;
69594;SDS011;56800;52.142;5.364;2023-11-21T12:55:22;16.50;;;9.45;;
69594;SDS011;56800;52.142;5.364;2023-11-21T12:57:53;15.95;;;9.23;;
69594;SDS011;56800;52.142;5.364;2023-11-21T13:00:29;20.33;;;10.20;;
69594;SDS011;56800;52.142;5.364;2023-11-21T13:02:59;24.05;;;9.23;;
69594;SDS011;56800;52.142;5.364;2023-11-21T13:05:30;15.43;;;8.20;;
69594;SDS011;56800;52.142;5.364;2023-11-21T13:08:00;15.93;;;7.82;;
69594;SDS011;56800;52.142;5.364;2023-11-21T13:10:30;12.38;;;6.85;;
69594;SDS011;56800;52.142;5.364;2023-11-21T13:12:58;15.95;;;6.32;;
69594;SDS011;56800;52.142;5.364;2023-11-21T13:15:26;12.00;;;6.03;;
69594;SDS011;56800;52.142;5.364;2023-11-21T13:17:54;14.83;;;6.23;;
69594;SDS011;56800;52.142;5.364;2023-11-21T13:20:23;14.35;;;5.93;;
69594;SDS011;56800;52.142;5.364;2023-11-21T13:22:52;11.30;;;5.20;;
69594;SDS011;56800;52.142;5.364;2023-11-21T13:25:23;16.02;;;5.65;;
69594;SDS011;56800;52.142;5.364;2023-11-21T13:27:54;10.25;;;4.93;;
69594;SDS011;56800;52.142;5.364;2023-11-21T13:30:21;14.77;;;4.60;;
69594;SDS011;56800;52.142;5.364;2023-11-21T13:32:53;7.32;;;3.53;;
69594;SDS011;56800;52.142;5.364;2023-11-21T13:35:23;7.03;;;4.10;;
69594;SDS011;56800;52.142;5.364;2023-11-21T13:38:04;8.63;;;3.80;;
69594;SDS011;56800;52.142;5.364;2023-11-21T13:40:33;8.05;;;3.72;;
69594;SDS011;56800;52.142;5.364;2023-11-21T13:43:09;8.67;;;4.33;;
69594;SDS011;56800;52.142;5.364;2023-11-21T13:45:37;9.88;;;4.28;;
69594;SDS011;56800;52.142;5.364;2023-11-21T13:48:08;8.77;;;4.03;;
69594;SDS011;56800;52.142;5.364;2023-11-21T13:50:40;7.63;;;4.35;;
69594;SDS011;56800;52.142;5.364;2023-11-21T13:53:14;9.93;;;4.43;;
69594;SDS011;56800;52.142;5.364;2023-11-21T13:55:51;7.83;;;4.47;;
69594;SDS011;56800;52.142;5.364;2023-11-21T13:58:24;10.15;;;4.97;;
69594;SDS011;56800;52.142;5.364;2023-11-21T14:01:05;12.00;;;6.07;;
69594;SDS011;56800;52.142;5.364;2023-11-21T14:03:39;11.48;;;7.10;;
69594;SDS011;56800;52.142;5.364;2023-11-21T14:06:16;13.00;;;7.43;;
69594;SDS011;56800;52.142;5.364;2023-11-21T14:08:50;13.03;;;8.00;;
69594;SDS011;56800;52.142;5.364;2023-11-21T14:11:17;13.65;;;6.88;;
69594;SDS011;56800;52.142;5.364;2023-11-21T14:13:49;14.10;;;7.97;;
69594;SDS011;56800;52.142;5.364;2023-11-21T14:16:16;19.30;;;9.45;;
69594;SDS011;56800;52.142;5.364;2023-11-21T14:18:43;17.77;;;10.48;;
69594;SDS011;56800;52.142;5.364;2023-11-21T14:21:21;16.93;;;10.30;;
69594;SDS011;56800;52.142;5.364;2023-11-21T14:23:48;20.83;;;12.60;;
69594;SDS011;56800;52.142;5.364;2023-11-21T14:26:15;19.92;;;10.85;;
69594;SDS011;56800;52.142;5.364;2023-11-21T14:28:43;19.90;;;10.27;;
69594;SDS011;56800;52.142;5.364;2023-11-21T14:31:10;17.83;;;11.07;;
69594;SDS011;56800;52.142;5.364;2023-11-21T14:33:40;19.60;;;10.83;;
69594;SDS011;56800;52.142;5.364;2023-11-21T14:36:07;23.10;;;10.75;;
69594;SDS011;56800;52.142;5.364;2023-11-21T14:38:36;19.58;;;10.77;;
69594;SDS011;56800;52.142;5.364;2023-11-21T14:41:06;17.90;;;11.35;;
69594;SDS011;56800;52.142;5.364;2023-11-21T14:43:37;16.77;;;10.30;;
69594;SDS011;56800;52.142;5.364;2023-11-21T14:46:05;18.77;;;11.27;;
69594;SDS011;56800;52.142;5.364;2023-11-21T14:48:36;17.80;;;10.93;;
69594;SDS011;56800;52.142;5.364;2023-11-21T14:51:23;17.30;;;10.32;;